createdAt,value
2022-10-14T00:01:23.434Z,76.69
2022-10-14T00:06:29.877Z,76.76
2022-10-14T00:11:50.783Z,76.82
2022-10-14T00:17:11.421Z,76.82
2022-10-14T00:22:14.118Z,76.84
2022-10-14T00:27:16.191Z,76.72
2022-10-14T00:32:18.915Z,76.75
2022-10-14T00:37:21.360Z,76.66
2022-10-14T00:42:23.613Z,76.53
2022-10-14T00:47:25.792Z,76.35
2022-10-14T00:52:28.499Z,76.27
2022-10-14T00:57:31.023Z,76.17
2022-10-14T01:02:33.264Z,76.02
2022-10-14T01:08:30.955Z,75.57
2022-10-14T01:13:37.685Z,75.49
2022-10-14T01:18:58.472Z,75.51
2022-10-14T01:24:09.616Z,75.44
2022-10-14T01:29:36.419Z,75.50
2022-10-14T01:34:48.891Z,75.39
2022-10-14T01:40:01.108Z,75.42
2022-10-14T01:45:24.254Z,75.35
2022-10-14T01:50:28.227Z,75.43
2022-10-14T01:55:36.232Z,75.35
2022-10-14T02:00:38.622Z,75.50
2022-10-14T02:05:53.575Z,75.37
2022-10-14T02:11:06.164Z,75.20
2022-10-14T02:16:41.168Z,75.18
2022-10-14T02:21:47.220Z,75.31
2022-10-14T02:27:15.622Z,75.16
2022-10-14T02:32:20.310Z,75.18
2022-10-14T02:37:26.430Z,75.43
2022-10-14T02:42:29.217Z,75.51
2022-10-14T02:47:50.106Z,75.54
2022-10-14T02:52:52.306Z,75.71
2022-10-14T02:58:14.733Z,75.76
2022-10-14T03:03:16.992Z,75.97
2022-10-14T03:08:19.209Z,76.11
2022-10-14T03:13:22.262Z,76.15
2022-10-14T03:18:25.420Z,76.16
2022-10-14T03:23:33.076Z,76.51
2022-10-14T03:28:35.316Z,76.31
2022-10-14T03:34:25.153Z,76.49
2022-10-14T03:39:37.626Z,76.54
2022-10-14T03:45:00.268Z,76.51
2022-10-14T03:50:06.504Z,76.37
2022-10-14T03:55:18.079Z,76.36
2022-10-14T04:00:23.061Z,76.67
2022-10-14T04:05:54.774Z,76.66
2022-10-14T04:11:00.370Z,76.70
2022-10-14T04:16:08.425Z,76.75
2022-10-14T04:21:33.435Z,76.51
2022-10-14T04:26:35.860Z,76.56
2022-10-14T04:31:39.385Z,76.73
2022-10-14T04:36:41.693Z,76.87
2022-10-14T04:41:57.816Z,76.83
2022-10-14T04:46:59.981Z,76.92
2022-10-14T04:52:03.311Z,76.93
2022-10-14T04:57:16.225Z,76.85
2022-10-14T05:02:22.869Z,76.92
2022-10-14T05:07:31.424Z,76.89
2022-10-14T05:12:44.021Z,76.94
2022-10-14T05:17:46.304Z,76.90
2022-10-14T05:22:51.783Z,77.02
2022-10-14T05:27:54.169Z,77.06
2022-10-14T05:32:57.276Z,77.22
2022-10-14T05:38:04.018Z,77.29
2022-10-14T05:43:12.340Z,77.42
2022-10-14T05:48:19.624Z,77.46
2022-10-14T05:53:24.344Z,77.72
2022-10-14T05:58:29.717Z,77.89
2022-10-14T06:03:51.526Z,78.13
2022-10-14T06:08:56.118Z,78.12
2022-10-14T06:13:58.464Z,78.26
2022-10-14T06:19:00.630Z,78.12
2022-10-14T06:24:03.937Z,78.44
2022-10-14T06:29:07.303Z,78.46
2022-10-14T06:34:09.728Z,78.58
2022-10-14T06:39:12.192Z,78.75
2022-10-14T06:44:15.784Z,78.79
2022-10-14T06:49:17.980Z,79.11
2022-10-14T06:54:20.258Z,79.14
2022-10-14T06:59:22.711Z,79.27
2022-10-14T07:04:28.072Z,79.33
2022-10-14T07:09:30.317Z,79.71
2022-10-14T07:14:32.510Z,79.54
2022-10-14T07:19:35.047Z,79.74
2022-10-14T07:24:37.272Z,79.62
2022-10-14T07:29:39.677Z,79.79
2022-10-14T07:34:41.978Z,79.91
2022-10-14T07:39:44.312Z,79.77
2022-10-14T07:44:46.640Z,79.69
2022-10-14T07:49:48.927Z,79.38
2022-10-14T07:54:51.093Z,78.90
2022-10-14T07:59:53.335Z,78.36
2022-10-14T08:05:04.105Z,78.11
2022-10-14T08:10:15.440Z,78.43
2022-10-14T08:15:17.745Z,77.70
2022-10-14T08:20:38.682Z,77.13
2022-10-14T08:25:59.593Z,76.91
2022-10-14T08:31:01.845Z,76.93
2022-10-14T08:36:04.343Z,76.23
2022-10-14T08:41:12.787Z,76.11
2022-10-14T08:46:21.653Z,75.69
2022-10-14T08:51:23.954Z,75.63
2022-10-14T08:56:26.363Z,75.52
2022-10-14T09:01:54.301Z,75.47
2022-10-14T09:06:57.003Z,75.34
2022-10-14T09:12:01.409Z,75.33
2022-10-14T09:17:08.123Z,75.33
2022-10-14T09:22:14.427Z,75.05
2022-10-14T09:27:22.358Z,74.93
2022-10-14T09:32:35.071Z,75.17
2022-10-14T09:37:57.045Z,74.98
2022-10-14T09:43:11.394Z,75.20
2022-10-14T09:48:39.909Z,75.67
2022-10-14T09:53:49.277Z,75.67
2022-10-14T09:59:20.054Z,75.77
2022-10-14T10:04:31.510Z,75.92
2022-10-14T10:09:34.603Z,75.93
2022-10-14T10:14:36.853Z,75.80
2022-10-14T10:19:43.300Z,76.00
2022-10-14T10:24:46.660Z,76.23
2022-10-14T10:29:48.942Z,76.39
2022-10-14T10:35:27.664Z,76.79
2022-10-14T10:40:47.969Z,76.47
2022-10-14T10:46:24.340Z,76.33
2022-10-14T10:51:29.842Z,76.25
2022-10-14T10:56:58.914Z,76.14
2022-10-14T11:02:04.485Z,76.14
2022-10-14T11:07:56.339Z,76.27
2022-10-14T11:13:29.387Z,76.33
2022-10-14T11:18:50.133Z,76.50
2022-10-14T11:24:23.533Z,76.47
2022-10-14T11:29:37.882Z,76.69
2022-10-14T11:34:58.295Z,76.51
2022-10-14T11:40:29.098Z,76.59
2022-10-14T11:45:54.398Z,76.27
2022-10-14T11:51:20.488Z,76.12
2022-10-14T11:56:46.364Z,76.40
2022-10-14T12:01:53.390Z,76.08
2022-10-14T12:07:10.621Z,76.30
2022-10-14T12:12:15.644Z,76.16
2022-10-14T12:17:23.638Z,76.41
2022-10-14T12:22:28.393Z,76.27
2022-10-14T12:27:31.223Z,76.10
2022-10-14T12:33:08.665Z,76.24
2022-10-14T12:38:13.402Z,76.15
2022-10-14T12:43:34.513Z,76.10
2022-10-14T12:48:38.911Z,76.19
2022-10-14T12:53:50.919Z,75.80
2022-10-14T12:59:01.514Z,75.95
2022-10-14T13:04:19.044Z,75.86
2022-10-14T13:09:32.559Z,75.82
2022-10-14T13:15:00.893Z,75.62
2022-10-14T13:20:04.760Z,75.77
2022-10-14T13:25:16.093Z,75.84
2022-10-14T13:30:33.890Z,75.81
2022-10-14T13:35:57.865Z,75.78
2022-10-14T13:41:00.087Z,75.45
2022-10-14T13:46:33.136Z,76.00
2022-10-14T13:51:56.402Z,76.00
2022-10-14T14:02:33.360Z,75.95
2022-10-14T14:08:13.521Z,75.90
2022-10-14T14:13:02.279Z,76.21
2022-10-14T14:18:04.578Z,76.14
2022-10-14T14:23:07.121Z,76.13
2022-10-14T14:28:31.975Z,76.02
2022-10-14T14:33:35.596Z,76.06
2022-10-14T14:38:39.250Z,76.21
2022-10-14T14:43:47.325Z,76.08
2022-10-14T14:48:56.699Z,76.32
2022-10-14T14:53:59.077Z,76.48
2022-10-14T14:59:16.689Z,76.71
2022-10-14T15:04:21.776Z,76.48
2022-10-14T15:09:38.092Z,77.04
2022-10-14T15:14:51.879Z,77.07
2022-10-14T15:19:54.911Z,76.75
2022-10-14T15:25:16.757Z,76.79
2022-10-14T15:30:37.515Z,77.14
2022-10-14T15:35:41.215Z,77.07
2022-10-14T15:40:44.967Z,77.11
2022-10-14T15:46:19.134Z,77.13
2022-10-14T15:51:26.170Z,77.12
2022-10-14T15:56:29.623Z,77.33
2022-10-14T16:01:34.785Z,77.43
2022-10-14T16:06:37.051Z,77.51
2022-10-14T16:11:39.389Z,77.59
2022-10-14T16:16:45.006Z,77.68
2022-10-14T16:21:49.982Z,77.77
2022-10-14T16:26:52.608Z,77.77
2022-10-14T16:31:55.585Z,77.70
2022-10-14T16:36:57.774Z,77.94
2022-10-14T16:42:00.096Z,77.90
2022-10-14T16:47:19.996Z,77.87
2022-10-14T16:52:22.778Z,78.08
2022-10-14T16:57:53.714Z,78.06
2022-10-14T17:02:55.957Z,78.22
2022-10-14T17:07:58.183Z,78.17
2022-10-14T17:13:02.220Z,78.27
2022-10-14T17:18:25.865Z,78.47
2022-10-14T17:23:31.872Z,78.55
2022-10-14T17:28:34.443Z,78.56
2022-10-14T17:33:55.381Z,78.65
2022-10-14T17:39:03.369Z,78.64
2022-10-14T17:44:05.687Z,78.60
2022-10-14T17:49:11.129Z,78.67
2022-10-14T17:54:13.742Z,78.61
2022-10-14T17:59:35.100Z,78.63
2022-10-14T18:04:38.655Z,78.70
2022-10-14T18:09:40.855Z,78.63
2022-10-14T18:14:43.293Z,78.82
2022-10-14T18:19:52.203Z,78.86
2022-10-14T18:24:54.908Z,78.82
2022-10-14T18:29:58.087Z,78.87
2022-10-14T18:35:02.409Z,78.74
2022-10-14T18:40:06.882Z,78.72
2022-10-14T18:45:11.348Z,78.86
2022-10-14T18:50:13.769Z,78.82
2022-10-14T18:55:16.479Z,78.62
2022-10-14T19:00:19.455Z,78.58
2022-10-14T19:05:21.992Z,78.78
2022-10-14T19:10:24.738Z,78.63
2022-10-14T19:15:51.368Z,78.65
2022-10-14T19:20:57.550Z,79.17
2022-10-14T19:26:01.320Z,78.61
2022-10-14T19:31:25.215Z,78.73
2022-10-14T19:36:27.597Z,78.56
2022-10-14T19:41:32.817Z,78.81
2022-10-14T19:46:36.523Z,78.66
2022-10-14T19:51:39.187Z,78.78
2022-10-14T19:56:41.623Z,78.87
2022-10-14T20:01:45.225Z,78.96
2022-10-14T20:06:47.673Z,78.80
2022-10-14T20:11:49.915Z,78.58
2022-10-14T20:16:55.093Z,78.84
2022-10-14T20:22:00.830Z,78.88
2022-10-14T20:27:04.588Z,78.79
2022-10-14T20:32:10.436Z,78.82
2022-10-14T20:37:33.817Z,78.64
2022-10-14T20:42:54.742Z,78.80
2022-10-14T20:47:57.974Z,78.76
2022-10-14T20:53:01.330Z,78.87
2022-10-14T20:58:03.840Z,78.63
2022-10-14T21:03:06.435Z,78.59
2022-10-14T21:08:08.725Z,78.56
2022-10-14T21:13:11.174Z,78.41
2022-10-14T21:18:32.554Z,78.47
2022-10-14T21:23:53.632Z,78.36
2022-10-14T21:28:56.381Z,78.32
2022-10-14T21:34:05.409Z,78.52
2022-10-14T21:39:10.542Z,78.56
2022-10-14T21:44:17.968Z,78.41
2022-10-14T21:49:20.282Z,78.29
2022-10-14T21:54:24.500Z,78.21
2022-10-14T21:59:45.259Z,78.21
2022-10-14T22:04:47.595Z,78.27
2022-10-14T22:09:49.874Z,78.27
2022-10-14T22:14:52.194Z,78.23
2022-10-14T22:19:54.421Z,78.12
2022-10-14T22:24:56.622Z,77.91
2022-10-14T22:30:17.839Z,78.12
2022-10-14T22:35:38.844Z,78.16
2022-10-14T22:41:04.627Z,78.06
2022-10-14T22:46:09.130Z,78.13
2022-10-14T22:51:13.934Z,78.13
2022-10-14T22:56:18.468Z,78.11
2022-10-14T23:01:22.506Z,78.06
2022-10-14T23:06:25.600Z,78.29
2022-10-14T23:11:28.704Z,78.24
2022-10-14T23:16:31.084Z,78.14
2022-10-14T23:21:37.699Z,78.43
2022-10-14T23:26:39.959Z,78.25
2022-10-14T23:31:42.482Z,78.27
2022-10-14T23:36:44.884Z,78.33
2022-10-14T23:41:47.183Z,78.54
2022-10-14T23:46:50.576Z,78.44
2022-10-14T23:51:52.945Z,78.45
2022-10-14T23:56:55.313Z,78.32
